Other Surface Observations
Issued by NWS Great Falls, MT

Home | Current Version | Previous Version | Text Only | Print | Product List | Glossary On
Versions: 1 2 3 4 5 6 7 8 9 10 11 12 13 14 15 16 17 18 19 20 21 22 23 24 25 26 27 28 29 30 31 32 33 34 35 36 37 38 39 40 41 42 43 44 45 46 47 48 49 50
000
SXUS55 KTFX 231214
OSOTFX
AREA AWOS OBSERVATIONS
NATIONAL WEATHER SERVICE GREAT FALLS MT
0614 AM MDT FRI JUN 23 2017

METAR KPWD 231215Z AUTO 29010KT 10SM 06/03 A3012 RMK PLENTYWOOD
METAR KPO1 231215Z AUTO 25005KT 9SM 06/04 A3019 RMK POPLAR
METAR K1S3 231215Z AUTO 26003KT 10SM 09/04 A3025 RMK FORSYTH
METAR KS71 231215Z AUTO 29003KT 10SM 06/03 A3027 RMK CHINOOK
METAR K79S 231215Z AUTO 00000KT 8SM 08/05 A3030 RMK FORT BENTON
METAR K38S 231215Z AUTO 00000KT 10SM 03/01 A3033 RMK DEER LODGE
METAR K3U3 231215Z AUTO 19003KT 10SM 04/M02 A3031 RMK ANACONDA
METAR K6S5 231215Z AUTO 00000KT 10SM 06/01 A3029 RMK HAMILTON
METAR K88M 231215Z AUTO 10SM 04/02 A3026 RMK EUREKA



USA.gov is the U.S. government's official web portal to all federal, state and local government web resources and services.